Time;durP1;ratioP1;P1;durP2;ratioP2;P2;SDS_P1;SDS_P2;PMS_P1;PMS_P2;Temp;Humidity;BMP_temperature;BMP_pressure;BME280_temperature;BME280_humidity;BME280_pressure;Samples;Min_cycle;Max_cycle;Signal;HPM_P1;HPM_P2
2021/07/15 00:00:35;;;;;;;2.00;0.90;;;;;;;13.18;nan;96115.28;3570438;40;20471;-71
2021/07/15 00:03:05;;;;;;;1.67;0.50;;;;;;;13.23;nan;96124.44;3571516;40;20924;-72
2021/07/15 00:05:33;;;;;;;1.63;0.60;;;;;;;13.20;nan;96122.06;3570212;40;20520;-73
2021/07/15 00:08:04;;;;;;;2.20;0.50;;;;;;;13.20;nan;96119.44;3568852;40;20764;-72
2021/07/15 00:10:35;;;;;;;0.70;0.50;;;;;;;13.21;nan;96122.88;3564001;40;20455;-71
2021/07/15 00:13:04;;;;;;;0.70;0.50;;;;;;;13.05;nan;96097.94;3570857;40;20467;-72
2021/07/15 00:15:35;;;;;;;2.17;0.50;;;;;;;13.16;nan;96115.41;3569229;40;20737;-72
2021/07/15 00:18:06;;;;;;;1.20;0.50;;;;;;;13.19;nan;96112.53;3569109;40;20845;-72
2021/07/15 00:20:37;;;;;;;1.17;0.50;;;;;;;13.22;nan;96114.84;3568789;40;20801;-72
2021/07/15 00:23:08;;;;;;;0.70;0.50;;;;;;;13.15;nan;96111.13;3566975;40;20748;-72
2021/07/15 00:25:36;;;;;;;2.20;0.50;;;;;;;13.24;nan;96101.59;3569826;40;20806;-73
2021/07/15 00:28:04;;;;;;;0.93;0.60;;;;;;;13.21;nan;96101.84;3570026;39;20440;-72
2021/07/15 00:30:32;;;;;;;1.93;0.50;;;;;;;13.17;nan;96103.06;3567534;40;20469;-73
2021/07/15 00:33:01;;;;;;;0.80;0.50;;;;;;;13.27;nan;96101.34;3559451;40;21132;-71
2021/07/15 00:35:29;;;;;;;0.70;0.40;;;;;;;13.20;nan;96106.28;3566455;40;20478;-70
2021/07/15 00:37:57;;;;;;;2.60;0.90;;;;;;;13.22;nan;96106.97;3561667;40;20556;-71
2021/07/15 00:40:26;;;;;;;2.50;0.60;;;;;;;13.16;nan;96104.88;3569481;40;20464;-72
2021/07/15 00:42:54;;;;;;;1.07;0.50;;;;;;;13.25;nan;96106.72;3559088;40;20805;-71
2021/07/15 00:45:22;;;;;;;1.00;0.50;;;;;;;13.22;nan;96109.59;3563878;40;20472;-72
2021/07/15 00:47:50;;;;;;;1.67;0.60;;;;;;;13.21;nan;96102.69;3566883;40;20766;-72
2021/07/15 00:50:21;;;;;;;2.33;0.50;;;;;;;13.20;nan;96102.81;3569397;40;20774;-71
2021/07/15 00:52:50;;;;;;;1.00;0.50;;;;;;;13.21;nan;96099.22;3568856;40;20437;-71
2021/07/15 00:55:22;;;;;;;2.57;0.50;;;;;;;13.17;nan;96096.03;3569121;40;20771;-71
2021/07/15 00:57:51;;;;;;;2.60;0.60;;;;;;;13.18;nan;96088.97;3566604;40;20815;-72
2021/07/15 01:00:21;;;;;;;1.10;0.70;;;;;;;13.17;nan;96096.03;3565444;40;20669;-71
2021/07/15 01:02:48;;;;;;;0.80;0.50;;;;;;;13.19;nan;96088.00;3569272;40;20549;-71
2021/07/15 01:05:20;;;;;;;2.43;0.93;;;;;;;13.14;nan;96091.03;3568712;40;20787;-71
2021/07/15 01:07:48;;;;;;;0.80;0.57;;;;;;;13.20;nan;96082.63;3567286;40;20918;-71
2021/07/15 01:10:20;;;;;;;1.00;0.50;;;;;;;13.13;nan;96071.00;3571040;40;21080;-71
2021/07/15 01:13:12;;;;;;;1.33;0.60;;;;;;;13.11;nan;96077.31;3567650;40;20754;-71
2021/07/15 01:15:50;;;;;;;2.73;0.93;;;;;;;12.93;nan;96072.69;3571518;40;20854;-71
2021/07/15 01:18:26;;;;;;;0.80;0.60;;;;;;;12.95;nan;96075.19;3560181;40;20849;-71
2021/07/15 01:21:18;;;;;;;4.20;0.60;;;;;;;13.01;nan;96085.19;3567795;40;20815;-72
2021/07/15 01:24:22;;;;;;;5.33;0.60;;;;;;;13.03;nan;96076.22;3569606;40;20765;-71
2021/07/15 01:27:03;;;;;;;2.40;0.50;;;;;;;13.03;nan;96084.09;3567915;40;20481;-72
2021/07/15 01:29:58;;;;;;;0.80;0.57;;;;;;;12.99;nan;96066.09;3570342;39;20497;-72
2021/07/15 01:32:30;;;;;;;0.90;0.53;;;;;;;13.00;nan;96075.66;3569209;40;20576;-71
2021/07/15 01:35:02;;;;;;;0.70;0.50;;;;;;;13.02;nan;96073.72;3567334;40;20568;-71
2021/07/15 01:37:32;;;;;;;0.80;0.50;;;;;;;12.98;nan;96074.94;3565639;40;21203;-72
2021/07/15 01:40:02;;;;;;;5.20;0.70;;;;;;;12.98;nan;96070.53;3568608;40;20462;-72
2021/07/15 01:42:32;;;;;;;0.87;0.67;;;;;;;13.04;nan;96062.09;3570341;40;20933;-72
2021/07/15 01:45:01;;;;;;;2.40;0.57;;;;;;;12.96;nan;96071.63;3567210;40;20765;-71
2021/07/15 01:47:31;;;;;;;0.80;0.50;;;;;;;12.94;nan;96076.19;3567078;40;20528;-72
2021/07/15 01:50:01;;;;;;;5.43;0.90;;;;;;;12.94;nan;96078.81;3566417;40;20555;-71
2021/07/15 01:52:29;;;;;;;10.50;1.20;;;;;;;12.98;nan;96082.84;3569226;40;20916;-72
2021/07/15 01:54:58;;;;;;;1.33;0.50;;;;;;;12.88;nan;96063.53;3568873;40;20466;-71
2021/07/15 01:57:27;;;;;;;2.50;0.77;;;;;;;13.01;nan;96079.91;3567845;40;20456;-71
2021/07/15 01:59:58;;;;;;;4.30;0.63;;;;;;;13.06;nan;96077.75;3566461;40;20457;-71
2021/07/15 02:02:28;;;;;;;1.40;0.50;;;;;;;13.11;nan;96082.59;3565879;40;20768;-73
2021/07/15 02:04:58;;;;;;;2.57;0.70;;;;;;;13.05;nan;96078.69;3571117;39;20502;-74
2021/07/15 02:07:27;;;;;;;1.40;0.50;;;;;;;13.06;nan;96083.00;3570506;40;21113;-73
2021/07/15 02:09:57;;;;;;;8.77;0.50;;;;;;;13.03;nan;96075.38;3568980;40;20563;-71
2021/07/15 02:12:26;;;;;;;0.70;0.50;;;;;;;13.01;nan;96078.13;3566081;40;20454;-72
2021/07/15 02:14:55;;;;;;;1.80;0.70;;;;;;;12.98;nan;96075.78;3565488;40;20671;-71
2021/07/15 02:17:26;;;;;;;0.80;0.50;;;;;;;13.05;nan;96074.28;3567118;40;20454;-73
2021/07/15 02:19:57;;;;;;;0.70;0.40;;;;;;;13.02;nan;96073.72;3569215;40;20449;-72
2021/07/15 02:22:25;;;;;;;2.07;0.50;;;;;;;13.06;nan;96065.41;3567878;40;20466;-72
2021/07/15 02:24:54;;;;;;;2.40;0.50;;;;;;;13.09;nan;96072.19;3566131;40;20488;-72
2021/07/15 02:27:24;;;;;;;0.90;0.50;;;;;;;13.03;nan;96075.38;3566670;40;21130;-72
2021/07/15 02:33:13;;;;;;;0.70;0.50;;;;;;;13.08;nan;96075.81;3567076;40;20564;-72
2021/07/15 02:35:47;;;;;;;8.83;0.60;;;;;;;13.02;nan;96082.44;3568650;40;20491;-73
2021/07/15 02:38:19;;;;;;;1.27;0.50;;;;;;;13.06;nan;96075.13;3563631;40;20835;-71
2021/07/15 02:40:47;;;;;;;1.80;0.53;;;;;;;13.15;nan;96078.72;3570405;40;20834;-72
2021/07/15 02:43:15;;;;;;;0.80;0.50;;;;;;;13.14;nan;96074.44;3568864;40;20443;-73
2021/07/15 02:45:43;;;;;;;0.70;0.50;;;;;;;13.10;nan;96080.94;3566871;40;20552;-72
2021/07/15 02:48:12;;;;;;;0.80;0.50;;;;;;;13.14;nan;96080.53;3567549;39;20830;-73
2021/07/15 02:50:40;;;;;;;5.33;0.80;;;;;;;13.11;nan;96082.59;3568735;40;20760;-72
2021/07/15 02:53:09;;;;;;;1.43;0.60;;;;;;;13.16;nan;96077.78;3569206;40;20499;-72
2021/07/15 02:55:37;;;;;;;1.00;0.50;;;;;;;13.17;nan;96082.03;3570215;40;20964;-71
2021/07/15 02:58:13;;;;;;;4.50;0.60;;;;;;;13.21;nan;96083.44;3567886;40;20903;-72
2021/07/15 03:00:52;;;;;;;1.23;0.70;;;;;;;13.21;nan;96086.06;3565866;40;20464;-71
2021/07/15 03:03:22;;;;;;;1.47;0.60;;;;;;;13.11;nan;96072.91;3568373;40;20484;-72
2021/07/15 03:05:59;;;;;;;0.70;0.40;;;;;;;13.19;nan;96080.97;3567480;40;20582;-72
2021/07/15 03:08:31;;;;;;;2.43;0.67;;;;;;;13.14;nan;96085.78;3569541;40;20772;-72
2021/07/15 03:11:02;;;;;;;0.80;0.50;;;;;;;13.10;nan;96078.31;3567379;40;21197;-72
2021/07/15 03:13:31;;;;;;;1.73;0.50;;;;;;;13.06;nan;96083.81;3566907;40;20460;-74
2021/07/15 03:15:59;;;;;;;1.20;0.60;;;;;;;13.08;nan;96075.81;3565096;40;20764;-72
2021/07/15 03:18:30;;;;;;;11.23;0.70;;;;;;;13.13;nan;96084.13;3559894;40;20474;-71
2021/07/15 03:21:04;;;;;;;0.80;0.50;;;;;;;13.11;nan;96086.03;3567306;40;20460;-73
2021/07/15 03:23:36;;;;;;;1.10;0.50;;;;;;;13.10;nan;96089.66;3560136;40;20900;-71
2021/07/15 03:26:06;;;;;;;0.70;0.40;;;;;;;13.19;nan;96088.84;3565348;40;20539;-71
2021/07/15 03:28:38;;;;;;;1.57;0.50;;;;;;;13.15;nan;96091.88;3566317;40;20706;-72
2021/07/15 03:31:08;;;;;;;0.70;0.50;;;;;;;13.11;nan;96082.59;3569179;40;20570;-72
2021/07/15 03:33:39;;;;;;;3.53;0.60;;;;;;;13.14;nan;96085.78;3567211;40;20876;-71
2021/07/15 03:36:09;;;;;;;1.10;0.50;;;;;;;13.19;nan;96094.13;3567619;40;20836;-72
2021/07/15 03:38:42;;;;;;;0.80;0.53;;;;;;;13.13;nan;96086.75;3565715;40;20458;-71
2021/07/15 03:41:12;;;;;;;0.80;0.50;;;;;;;13.10;nan;96096.72;3564730;40;20641;-73
2021/07/15 03:43:42;;;;;;;0.80;0.53;;;;;;;13.10;nan;96104.59;3568084;40;20815;-72
2021/07/15 03:46:10;;;;;;;0.70;0.50;;;;;;;13.12;nan;96100.84;3565299;40;20897;-73
2021/07/15 03:48:39;;;;;;;2.40;0.60;;;;;;;13.14;nan;96084.97;3566510;40;20473;-73
2021/07/15 03:51:10;;;;;;;2.60;0.60;;;;;;;13.21;nan;96094.81;3566912;40;20865;-71
2021/07/15 03:53:42;;;;;;;9.47;0.60;;;;;;;13.17;nan;96109.19;3565639;40;20830;-73
2021/07/15 03:56:14;;;;;;;5.13;0.70;;;;;;;13.21;nan;96115.84;3569703;40;20901;-71
2021/07/15 03:58:46;;;;;;;2.83;0.50;;;;;;;13.23;nan;96113.06;3560093;40;20961;-73
2021/07/15 04:01:14;;;;;;;0.80;0.50;;;;;;;13.21;nan;96110.59;3568036;40;20480;-73
2021/07/15 04:03:45;;;;;;;1.83;0.60;;;;;;;13.20;nan;96116.78;3566274;40;20446;-72
2021/07/15 04:06:15;;;;;;;3.27;0.53;;;;;;;13.29;nan;96127.47;3569212;40;20873;-72
2021/07/15 04:08:47;;;;;;;4.67;0.60;;;;;;;13.34;nan;96120.06;3555928;40;20942;-73
2021/07/15 04:11:17;;;;;;;3.50;0.70;;;;;;;13.29;nan;96104.66;3564264;40;20499;-74
2021/07/15 04:13:45;;;;;;;1.50;0.70;;;;;;;13.22;nan;96099.09;3567090;40;20472;-73
2021/07/15 04:16:30;;;;;;;1.20;0.60;;;;;;;13.25;nan;96105.91;3563889;40;20988;-73
2021/07/15 04:19:01;;;;;;;1.30;0.70;;;;;;;13.21;nan;96104.47;3568748;40;20850;-73
2021/07/15 04:21:29;;;;;;;0.77;0.50;;;;;;;13.18;nan;96102.94;3570357;40;20533;-72
2021/07/15 04:24:00;;;;;;;7.37;0.60;;;;;;;12.98;nan;96101.22;3561160;40;20491;-74
2021/07/15 04:26:29;;;;;;;3.90;0.60;;;;;;;13.15;nan;96097.97;3568968;40;20819;-72
2021/07/15 04:28:58;;;;;;;8.47;0.50;;;;;;;13.16;nan;96109.31;3565060;40;20570;-74
2021/07/15 04:31:33;;;;;;;1.83;0.70;;;;;;;13.22;nan;96112.22;3565492;40;20484;-73
2021/07/15 04:34:02;;;;;;;1.60;1.17;;;;;;;13.16;nan;96115.41;3568368;40;20461;-72
2021/07/15 04:36:32;;;;;;;4.00;0.50;;;;;;;13.29;nan;96115.19;3569326;40;20521;-75
2021/07/15 04:39:02;;;;;;;1.70;0.67;;;;;;;13.39;nan;96115.25;3568302;40;20534;-73
2021/07/15 04:41:31;;;;;;;8.80;0.77;;;;;;;13.39;nan;96123.94;3570516;40;20785;-75
2021/07/15 04:44:00;;;;;;;4.90;0.60;;;;;;;13.46;nan;96108.44;3572412;40;20472;-74
2021/07/15 04:46:28;;;;;;;5.03;1.00;;;;;;;13.58;nan;96115.28;3569373;40;20912;-74
2021/07/15 04:48:56;;;;;;;8.67;1.07;;;;;;;13.63;nan;96117.50;3569089;40;20810;-74
2021/07/15 04:51:26;;;;;;;1.80;0.70;;;;;;;13.55;nan;96115.53;3565601;40;20569;-73
2021/07/15 04:53:55;;;;;;;2.10;0.73;;;;;;;13.51;nan;96116.78;3566810;40;20448;-72
2021/07/15 04:56:25;;;;;;;4.50;0.60;;;;;;;13.59;nan;96101.16;3566117;40;20466;-73
2021/07/15 04:58:54;;;;;;;2.60;0.50;;;;;;;13.26;nan;96100.47;3567152;40;20530;-72
2021/07/15 05:01:22;;;;;;;7.90;0.60;;;;;;;13.39;nan;96113.44;3570343;40;20456;-74
2021/07/15 05:03:50;;;;;;;0.80;0.50;;;;;;;13.49;nan;96107.38;3568370;40;20814;-71
2021/07/15 05:06:21;;;;;;;3.00;1.70;;;;;;;13.71;nan;96119.44;3566313;40;20473;-74
2021/07/15 05:08:49;;;;;;;3.87;0.60;;;;;;;13.70;nan;96117.78;3569308;40;20474;-72
2021/07/15 05:11:17;;;;;;;3.83;0.60;;;;;;;13.52;nan;96105.28;3569294;40;20453;-72
2021/07/15 05:13:46;;;;;;;5.43;1.63;;;;;;;13.58;nan;96104.75;3569995;40;20731;-71
2021/07/15 05:16:14;;;;;;;3.63;0.53;;;;;;;13.69;nan;96105.59;3567683;40;20460;-73
2021/07/15 05:18:43;;;;;;;1.77;0.50;;;;;;;13.58;nan;96104.75;3570555;40;20462;-74
2021/07/15 05:21:11;;;;;;;4.30;1.20;;;;;;;13.78;nan;96110.03;3568773;40;20940;-73
2021/07/15 05:23:39;;;;;;;6.53;0.80;;;;;;;13.67;nan;96111.00;3570500;40;20919;-72
2021/07/15 05:26:07;;;;;;;8.33;0.87;;;;;;;13.70;nan;96108.09;3568017;40;20829;-73
2021/07/15 05:28:35;;;;;;;1.83;0.60;;;;;;;13.87;nan;96114.47;3569718;40;20461;-72
2021/07/15 05:31:04;;;;;;;5.70;0.60;;;;;;;13.93;nan;96111.28;3563067;40;20814;-75
2021/07/15 05:33:32;;;;;;;10.07;1.10;;;;;;;13.88;nan;96121.41;3568234;40;20471;-73
2021/07/15 05:36:02;;;;;;;0.90;0.70;;;;;;;14.00;nan;96120.28;3568552;40;20478;-73
2021/07/15 05:38:30;;;;;;;7.90;0.60;;;;;;;13.97;nan;96127.63;3569337;40;20510;-73
2021/07/15 05:40:58;;;;;;;1.13;0.50;;;;;;;14.03;nan;96129.72;3565260;40;20946;-71
2021/07/15 05:43:26;;;;;;;1.30;0.50;;;;;;;14.08;nan;96131.94;3569147;40;20438;-72
2021/07/15 05:45:54;;;;;;;5.77;0.60;;;;;;;14.09;nan;96139.69;3569554;40;20699;-70
2021/07/15 05:48:23;;;;;;;1.23;0.60;;;;;;;14.02;nan;96135.97;3568000;40;20699;-76
2021/07/15 05:50:51;;;;;;;1.13;0.50;;;;;;;14.10;nan;96141.34;3568442;40;20505;-73
2021/07/15 05:53:19;;;;;;;4.27;0.70;;;;;;;14.12;nan;96138.59;3560505;40;20793;-72
2021/07/15 05:55:47;;;;;;;2.93;0.50;;;;;;;14.23;nan;96151.63;3566959;40;20919;-71
2021/07/15 05:58:15;;;;;;;8.53;0.70;;;;;;;14.20;nan;96142.19;3573598;40;20476;-73
2021/07/15 06:00:43;;;;;;;0.83;0.50;;;;;;;14.31;nan;96153.53;3569873;40;20772;-74
2021/07/15 06:03:11;;;;;;;5.70;0.60;;;;;;;14.42;nan;96148.97;3570497;40;20739;-73
2021/07/15 06:05:40;;;;;;;3.90;2.70;;;;;;;14.53;nan;96144.53;3567407;40;21179;-72
2021/07/15 06:08:09;;;;;;;4.27;2.20;;;;;;;14.52;nan;96153.41;3556750;40;20473;-73
2021/07/15 06:10:36;;;;;;;0.80;0.50;;;;;;;14.49;nan;96156.31;3567965;40;20473;-73
2021/07/15 06:13:05;;;;;;;1.30;0.63;;;;;;;14.49;nan;96156.31;3570857;40;20671;-72
2021/07/15 06:15:33;;;;;;;2.20;0.60;;;;;;;14.46;nan;96169.75;3568801;39;20473;-74
2021/07/15 06:18:01;;;;;;;3.57;0.60;;;;;;;14.59;nan;96170.34;3566912;40;20798;-73
2021/07/15 06:20:29;;;;;;;1.00;0.50;;;;;;;14.76;nan;96174.91;3565375;40;20485;-73
2021/07/15 06:22:58;;;;;;;0.80;0.60;;;;;;;14.97;nan;96171.22;3568823;40;20526;-73
2021/07/15 06:25:26;;;;;;;2.47;0.50;;;;;;;15.15;nan;96169.53;3568504;40;20465;-72
2021/07/15 06:27:54;;;;;;;5.63;0.60;;;;;;;15.12;nan;96172.44;3568940;40;20795;-73
2021/07/15 06:30:22;;;;;;;0.90;0.60;;;;;;;15.20;nan;96167.25;3558952;40;21109;-73
2021/07/15 06:32:51;;;;;;;3.23;0.50;;;;;;;15.05;nan;96173.97;3555402;40;20450;-73
2021/07/15 06:35:21;;;;;;;1.53;0.57;;;;;;;15.20;nan;96166.44;3560277;40;20831;-74
2021/07/15 06:37:51;;;;;;;2.80;0.60;;;;;;;14.89;nan;96173.75;3558696;40;20455;-72
2021/07/15 06:40:22;;;;;;;6.60;0.70;;;;;;;14.88;nan;96182.63;3565413;40;20553;-75
2021/07/15 06:42:50;;;;;;;3.70;0.60;;;;;;;15.03;nan;96182.06;3558763;40;20914;-74
2021/07/15 06:45:19;;;;;;;2.70;0.60;;;;;;;15.17;nan;96177.25;3556119;40;20907;-76
2021/07/15 06:47:47;;;;;;;2.37;0.60;;;;;;;15.31;nan;96168.06;3562094;40;20830;-71
2021/07/15 06:50:17;;;;;;;2.73;0.50;;;;;;;15.48;nan;96164.66;3561535;40;21210;-72
2021/07/15 06:52:46;;;;;;;2.60;0.60;;;;;;;15.18;nan;96163.94;3557956;40;20863;-71
2021/07/15 06:55:14;;;;;;;5.97;0.50;;;;;;;15.10;nan;96168.28;3549109;40;20913;-73
2021/07/15 06:57:44;;;;;;;1.07;0.50;;;;;;;15.18;nan;96150.75;3561325;40;20831;-71
2021/07/15 07:00:15;;;;;;;2.50;0.70;;;;;;;15.55;nan;96155.19;3559951;40;20551;-71
2021/07/15 07:02:45;;;;;;;1.00;0.60;;;;;;;15.74;nan;96143.72;3561883;40;20539;-72
2021/07/15 07:05:14;;;;;;;1.73;0.60;;;;;;;15.92;nan;96146.38;3556538;40;21156;-75
2021/07/15 07:07:45;;;;;;;0.80;0.50;;;;;;;16.24;nan;96152.13;3556828;40;20442;-73
2021/07/15 07:10:15;;;;;;;0.70;0.50;;;;;;;16.32;nan;96160.94;3555942;40;20719;-74
2021/07/15 07:12:44;;;;;;;1.93;0.60;;;;;;;16.38;nan;96157.69;3558407;40;20828;-74
2021/07/15 07:15:14;;;;;;;0.90;0.60;;;;;;;16.49;nan;96163.75;3559811;40;20827;-71
2021/07/15 07:17:43;;;;;;;2.70;0.83;;;;;;;16.34;nan;96161.63;3558789;40;20439;-74
2021/07/15 07:20:13;;;;;;;3.37;0.70;;;;;;;16.19;nan;96163.13;3556366;40;20895;-73
2021/07/15 07:22:41;;;;;;;2.47;0.53;;;;;;;16.11;nan;96153.34;3547042;40;20460;-74
2021/07/15 07:25:12;;;;;;;0.80;0.50;;;;;;;16.39;nan;96156.72;3559517;40;21180;-75
2021/07/15 07:27:40;;;;;;;0.80;0.50;;;;;;;17.19;nan;96161.09;3557845;40;20723;-74
2021/07/15 07:30:12;;;;;;;1.57;0.53;;;;;;;17.34;nan;96164.78;3567218;40;20897;-75
2021/07/15 07:32:40;;;;;;;2.00;0.60;;;;;;;17.19;nan;96167.22;3566475;40;20636;-73
2021/07/15 07:35:09;;;;;;;0.80;0.60;;;;;;;17.10;nan;96168.16;3572129;40;20488;-73
2021/07/15 07:37:37;;;;;;;1.30;0.50;;;;;;;16.95;nan;96159.13;3561713;40;20477;-74
2021/07/15 07:40:08;;;;;;;1.00;0.50;;;;;;;17.01;nan;96169.06;3572160;40;20845;-74
2021/07/15 07:42:37;;;;;;;1.33;0.70;;;;;;;16.70;nan;96166.88;3569605;40;20747;-74
2021/07/15 07:45:08;;;;;;;0.70;0.50;;;;;;;16.83;nan;96168.31;3570132;40;20473;-71
2021/07/15 07:47:38;;;;;;;0.80;0.57;;;;;;;17.01;nan;96163.78;3572551;40;20525;-72
2021/07/15 07:50:09;;;;;;;0.80;0.50;;;;;;;17.16;nan;96166.69;3571883;40;20687;-74
2021/07/15 07:52:38;;;;;;;1.70;0.50;;;;;;;17.10;nan;96170.78;3567488;40;20534;-73
2021/07/15 07:55:08;;;;;;;1.70;0.57;;;;;;;17.08;nan;96170.13;3579537;40;20477;-72
2021/07/15 07:57:36;;;;;;;16.00;8.63;;;;;;;17.00;nan;96173.53;3568240;40;20450;-72
2021/07/15 08:00:06;;;;;;;6.93;3.70;;;;;;;17.05;nan;96177.53;3568856;40;20459;-72
2021/07/15 08:02:34;;;;;;;0.93;0.70;;;;;;;16.63;nan;96183.50;3571505;40;20921;-72
2021/07/15 08:05:05;;;;;;;0.80;0.50;;;;;;;17.18;nan;96185.88;3570268;40;20458;-72
2021/07/15 08:07:33;;;;;;;4.60;0.60;;;;;;;17.33;nan;96188.78;3568634;40;20430;-73
2021/07/15 08:10:01;;;;;;;5.03;0.60;;;;;;;17.08;nan;96186.00;3566702;40;20831;-73
2021/07/15 08:12:29;;;;;;;1.43;0.50;;;;;;;17.37;nan;96195.44;3571168;40;20826;-75
2021/07/15 08:14:57;;;;;;;0.90;0.50;;;;;;;16.97;nan;96197.69;3571371;40;20865;-71
2021/07/15 08:17:25;;;;;;;0.80;0.50;;;;;;;17.35;nan;96200.06;3570801;40;20476;-71
2021/07/15 08:19:53;;;;;;;1.43;0.60;;;;;;;17.95;nan;96197.34;3574006;40;20705;-72
2021/07/15 08:22:22;;;;;;;1.73;0.60;;;;;;;18.23;nan;96206.84;3563167;40;20581;-73
2021/07/15 08:24:50;;;;;;;2.40;0.50;;;;;;;18.42;nan;96205.72;3565795;40;20676;-72
2021/07/15 08:27:18;;;;;;;0.90;0.60;;;;;;;18.56;nan;96199.75;3571371;40;20453;-73
2021/07/15 08:29:46;;;;;;;2.93;0.60;;;;;;;18.59;nan;96202.09;3570732;40;20489;-72
2021/07/15 08:32:14;;;;;;;0.70;0.50;;;;;;;18.54;nan;96217.66;3560543;40;20904;-73
2021/07/15 08:34:42;;;;;;;3.00;0.57;;;;;;;18.37;nan;96215.00;3569707;40;20802;-74
2021/07/15 08:37:10;;;;;;;0.70;0.50;;;;;;;18.06;nan;96217.41;3568389;40;20491;-73
2021/07/15 08:39:40;;;;;;;1.00;0.60;;;;;;;18.11;nan;96214.25;3570199;40;20484;-73
2021/07/15 08:42:10;;;;;;;2.20;0.57;;;;;;;18.22;nan;96219.28;3564967;40;20835;-74
2021/07/15 08:44:39;;;;;;;1.33;0.70;;;;;;;18.60;nan;96219.66;3570113;40;20484;-73
2021/07/15 08:47:08;;;;;;;1.37;0.60;;;;;;;18.22;nan;96221.91;3564552;40;20582;-73
2021/07/15 08:49:37;;;;;;;1.33;0.50;;;;;;;18.08;nan;96219.91;3559698;40;20566;-73
2021/07/15 08:52:08;;;;;;;0.80;0.60;;;;;;;18.20;nan;96215.13;3574400;40;20784;-73
2021/07/15 08:54:50;;;;;;;1.43;0.60;;;;;;;17.73;nan;96217.25;3568134;40;20458;-73
2021/07/15 08:57:19;;;;;;;3.70;0.57;;;;;;;17.61;nan;96229.13;3571159;40;20463;-73
2021/07/15 08:59:46;;;;;;;1.03;0.60;;;;;;;17.24;nan;96226.78;3568329;40;20834;-73
2021/07/15 09:02:18;;;;;;;8.33;0.77;;;;;;;17.43;nan;96225.72;3567354;40;20494;-71
2021/07/15 09:04:48;;;;;;;1.00;0.70;;;;;;;17.43;nan;96221.25;3570282;39;20790;-73
2021/07/15 09:07:16;;;;;;;1.17;0.60;;;;;;;17.46;nan;96230.69;3561544;40;20559;-73
2021/07/15 09:09:45;;;;;;;1.30;0.53;;;;;;;17.49;nan;96228.56;3567461;40;20839;-72
2021/07/15 09:12:14;;;;;;;1.17;0.70;;;;;;;17.14;nan;96237.47;3567641;40;21108;-72
2021/07/15 09:14:50;;;;;;;1.00;0.60;;;;;;;17.07;nan;96236.41;3567128;40;20488;-71
2021/07/15 09:17:27;;;;;;;1.20;0.50;;;;;;;16.67;nan;96238.56;3568737;40;20468;-73
2021/07/15 09:19:55;;;;;;;0.80;0.60;;;;;;;16.44;nan;96246.09;3564313;40;20558;-73
2021/07/15 09:22:24;;;;;;;2.03;0.63;;;;;;;16.46;nan;96251.25;3572983;40;20442;-73
2021/07/15 09:24:52;;;;;;;2.60;0.60;;;;;;;16.63;nan;96258.34;3571841;40;20465;-74
2021/07/15 09:27:22;;;;;;;1.80;0.60;;;;;;;16.72;nan;96252.16;3568195;40;21000;-72
2021/07/15 09:30:07;;;;;;;0.80;0.50;;;;;;;16.95;nan;96259.63;3573006;40;20888;-75
2021/07/15 09:32:49;;;;;;;1.00;0.60;;;;;;;16.94;nan;96264.09;3569500;40;20488;-73
2021/07/15 09:35:26;;;;;;;0.90;0.60;;;;;;;16.97;nan;96262.94;3568242;40;20830;-71
2021/07/15 09:37:55;;;;;;;0.80;0.70;;;;;;;17.10;nan;96266.03;3575829;40;20472;-71
2021/07/15 09:40:43;;;;;;;2.80;0.60;;;;;;;17.64;nan;96254.44;3571125;40;20575;-71
2021/07/15 09:43:16;;;;;;;1.00;0.60;;;;;;;17.56;nan;96257.88;3574899;40;20532;-72
2021/07/15 09:45:47;;;;;;;1.50;0.60;;;;;;;17.67;nan;96256.78;3562208;40;20952;-71
2021/07/15 09:48:17;;;;;;;0.90;0.50;;;;;;;17.86;nan;96261.88;3567037;40;20499;-73
2021/07/15 09:50:48;;;;;;;1.70;0.90;;;;;;;18.04;nan;96256.47;3570042;40;20878;-72
2021/07/15 09:53:19;;;;;;;243.07;128.10;;;;;;;18.36;nan;96246.97;3569254;40;21001;-73
2021/07/15 09:55:48;;;;;;;11.97;4.70;;;;;;;18.50;nan;96262.25;3572977;40;20936;-72
2021/07/15 09:58:16;;;;;;;14.47;1.13;;;;;;;18.76;nan;96259.47;3572440;40;20530;-73
2021/07/15 10:00:48;;;;;;;4.40;0.80;;;;;;;19.04;nan;96256.50;3557561;40;20529;-73
2021/07/15 10:03:17;;;;;;;1.20;0.90;;;;;;;19.68;nan;96261.03;3571066;40;20541;-72
2021/07/15 10:05:54;;;;;;;0.80;0.70;;;;;;;19.23;nan;96265.97;3568498;40;20836;-71
2021/07/15 10:08:25;;;;;;;1.03;0.70;;;;;;;18.47;nan;96267.03;3572090;40;20534;-73
2021/07/15 10:10:55;;;;;;;1.00;0.70;;;;;;;18.16;nan;96265.78;3569349;40;20480;-73
2021/07/15 10:13:24;;;;;;;2.83;0.60;;;;;;;18.24;nan;96272.94;3573240;40;20830;-74
2021/07/15 10:15:54;;;;;;;1.00;0.60;;;;;;;17.81;nan;96271.25;3570372;40;20842;-73
2021/07/15 10:18:37;;;;;;;0.80;0.70;;;;;;;17.86;nan;96277.78;3577747;40;20465;-72
2021/07/15 10:21:08;;;;;;;1.20;0.70;;;;;;;17.52;nan;96275.91;3572150;40;20465;-72
2021/07/15 10:23:38;;;;;;;2.60;0.70;;;;;;;17.57;nan;96278.91;3571307;40;20460;-72
2021/07/15 10:26:25;;;;;;;1.70;0.80;;;;;;;17.26;nan;96275.91;3567794;40;20481;-72
2021/07/15 10:28:53;;;;;;;1.40;0.70;;;;;;;17.94;nan;96283.09;3574010;40;20465;-72
2021/07/15 10:31:23;;;;;;;1.17;0.90;;;;;;;18.02;nan;96284.13;3568264;40;20488;-73
2021/07/15 10:33:53;;;;;;;2.30;0.90;;;;;;;18.17;nan;96278.06;3569895;40;20476;-74
2021/07/15 10:36:22;;;;;;;1.10;0.60;;;;;;;18.61;nan;96274.34;3560646;40;20838;-72
2021/07/15 10:38:52;;;;;;;1.10;0.70;;;;;;;18.72;nan;96268.75;3566767;40;20432;-73
2021/07/15 10:41:22;;;;;;;1.60;0.80;;;;;;;18.71;nan;96272.38;3568124;40;21022;-72
2021/07/15 10:43:53;;;;;;;84.40;44.77;;;;;;;19.63;nan;96261.56;3572296;40;20457;-73
2021/07/15 10:46:27;;;;;;;7.20;4.03;;;;;;;20.02;nan;96259.97;3568844;40;20488;-74
2021/07/15 10:49:13;;;;;;;1.87;0.70;;;;;;;20.28;nan;96263.16;3572064;40;20489;-72
2021/07/15 10:51:45;;;;;;;1.87;0.90;;;;;;;20.46;nan;96267.38;3574161;40;20476;-73
2021/07/15 10:54:14;;;;;;;1.83;1.00;;;;;;;20.77;nan;96266.56;3572968;39;21105;-72
2021/07/15 10:56:44;;;;;;;1.60;0.80;;;;;;;21.24;nan;96268.16;3568980;40;20785;-73
2021/07/15 10:59:22;;;;;;;3.30;0.90;;;;;;;21.68;nan;96270.13;3568405;40;20916;-74
2021/07/15 11:01:52;;;;;;;1.40;0.90;;;;;;;21.57;nan;96273.22;3567586;40;21105;-72
2021/07/15 11:04:33;;;;;;;3.73;1.30;;;;;;;20.86;nan;96281.47;3571144;40;20480;-75
2021/07/15 11:07:17;;;;;;;1.20;1.10;;;;;;;21.24;nan;96279.63;3570519;40;20460;-74
2021/07/15 11:09:45;;;;;;;3.43;1.00;;;;;;;21.06;nan;96274.63;3571767;40;20899;-72
2021/07/15 11:12:35;;;;;;;3.23;0.80;;;;;;;21.60;nan;96278.16;3569342;39;20939;-72
2021/07/15 11:15:09;;;;;;;2.20;1.00;;;;;;;20.23;nan;96281.47;3562969;40;20535;-71
2021/07/15 11:17:49;;;;;;;0.90;0.70;;;;;;;20.75;nan;96288.00;3569696;40;20433;-73
2021/07/15 11:20:26;;;;;;;1.67;0.80;;;;;;;20.29;nan;96286.09;3570303;40;20471;-73
2021/07/15 11:22:55;;;;;;;0.93;0.80;;;;;;;19.58;nan;96302.91;3559937;40;20460;-72
2021/07/15 11:25:39;;;;;;;1.77;0.87;;;;;;;19.27;nan;96291.16;3569094;39;20839;-74
2021/07/15 11:28:20;;;;;;;3.37;1.00;;;;;;;19.36;nan;96294.63;3569352;40;20531;-75
2021/07/15 11:30:50;;;;;;;1.80;0.90;;;;;;;19.19;nan;96291.19;3570763;40;21115;-73
2021/07/15 11:33:36;;;;;;;2.97;1.07;;;;;;;18.47;nan;96297.03;3572999;40;20520;-73
2021/07/15 11:36:08;;;;;;;2.80;1.33;;;;;;;18.40;nan;96285.41;3566763;40;20833;-71
2021/07/15 11:38:39;;;;;;;2.30;1.00;;;;;;;18.60;nan;96293.88;3566592;40;20472;-74
2021/07/15 11:41:09;;;;;;;0.90;0.80;;;;;;;18.08;nan;96289.63;3569158;40;20550;-72
2021/07/15 11:43:51;;;;;;;1.87;1.27;;;;;;;18.65;nan;96288.94;3560530;40;20788;-73
2021/07/15 11:46:20;;;;;;;1.30;1.10;;;;;;;18.69;nan;96300.06;3571560;40;20921;-74
2021/07/15 11:49:04;;;;;;;3.57;1.00;;;;;;;18.75;nan;96297.56;3569840;40;20903;-73
2021/07/15 11:51:43;;;;;;;1.20;1.10;;;;;;;19.15;nan;96303.94;3570670;40;21137;-75
2021/07/15 11:54:34;;;;;;;3.00;1.00;;;;;;;19.26;nan;96304.59;3568208;40;20469;-72
2021/07/15 11:57:23;;;;;;;1.80;1.37;;;;;;;18.88;nan;96301.63;3558522;40;20814;-72
2021/07/15 11:59:52;;;;;;;7.53;1.30;;;;;;;19.15;nan;96306.59;3571005;40;20717;-71
2021/07/15 12:02:26;;;;;;;1.73;1.20;;;;;;;19.25;nan;96306.44;3559884;40;20466;-73
2021/07/15 12:05:20;;;;;;;3.13;1.40;;;;;;;19.31;nan;96313.72;3568628;40;20683;-72
2021/07/15 12:07:51;;;;;;;3.67;1.10;;;;;;;19.37;nan;96306.91;3573207;40;20445;-74
2021/07/15 12:10:25;;;;;;;1.33;1.23;;;;;;;19.27;nan;96306.28;3562850;40;20562;-71